Home   Weather   USA   Las Cruces   Past weeks
Flag for USA

Past Weather in Las Cruces, New Mexico, USA — Yesterday and Last 2 Weeks

Currently: 53 °F. Clear. (Weather station: Las Cruces International, USA). See more current weather

Past Weather in Las Cruces — Graph

°F

Las Cruces Temperature Yesterday

Maximum temperature yesterday: 74 °F (at 2:35 pm)
Minimum temperature yesterday: 54 °F (at 12:55 am)
Average temperature yesterday: 63 °F

High & Low Weather Summary for the Past Weeks

 TemperatureHumidityPressure
High82 °F (Feb 25, 2:35 pm)96% (Feb 13, 6:55 am)30.32 "Hg (Feb 13, 6:55 am)
Low29 °F (Feb 13, 6:55 am)8% (Feb 20, 2:35 pm)29.86 "Hg (Feb 27, 3:15 pm)
Average55 °F33%30.12 "Hg
* Reported Feb 12 11:15 pm — Feb 27 11:15 pm, Las Cruces. Weather by CustomWeather, © 2024

Note: Actual official high and low records may vary slightly from our data, if they occured in-between our weather recording intervals... More about our weather records

Las Cruces Weather History for the Previous 24 Hours

Scroll right to see more
 ConditionsComfort  
Time TempWeatherWind HumidityBarometerVisibility
11:15 pm
Tue, Feb 27
56 °FClear.8 mph48%30.04 "Hg10 mi
10:55 pm56 °FClear.8 mph49%30.03 "Hg10 mi
10:35 pm58 °FClear.8 mph41%30.03 "Hg10 mi
10:15 pm57 °FClear.5 mph42%30.02 "Hg10 mi
9:55 pm58 °FClear.3 mph40%30.01 "Hg10 mi
9:35 pm60 °FClear.6 mph38%29.99 "Hg10 mi
9:15 pm60 °FClear.12 mph36%29.99 "Hg10 mi
8:55 pm61 °FClear.14 mph35%29.98 "Hg10 mi
8:35 pm62 °FClear.12 mph34%29.98 "Hg10 mi
8:15 pm62 °FClear.14 mph34%29.97 "Hg10 mi
7:35 pm64 °FClear.16 mph32%29.95 "Hg10 mi
6:55 pm65 °FClear.23 mph32%29.93 "Hg10 mi
6:35 pm66 °FClear.22 mph32%29.92 "Hg10 mi
6:15 pm67 °FClear.24 mph32%29.92 "Hg10 mi
5:55 pm68 °FSunny.22 mph31%29.91 "Hg10 mi
5:35 pm69 °FSunny.26 mph28%29.90 "Hg10 mi
5:15 pm70 °FSunny.23 mph28%29.89 "Hg10 mi
4:55 pm70 °FSunny.24 mph27%29.89 "Hg10 mi
4:35 pm71 °FScattered clouds.22 mph26%29.88 "Hg10 mi
4:15 pm71 °FPartly sunny.35 mph25%29.88 "Hg7 mi
3:55 pm72 °FPartly sunny.35 mph23%29.87 "Hg5 mi
3:35 pm72 °FScattered clouds.35 mph23%29.86 "Hg7 mi
3:15 pm72 °FPartly sunny.43 mph23%29.86 "Hg5 mi
2:55 pm74 °FSunny.38 mph22%29.87 "Hg7 mi
2:35 pm74 °FSunny.35 mph26%29.87 "Hg10 mi
1:55 pm73 °FSunny.28 mph28%29.88 "Hg10 mi
1:35 pm73 °FSunny.25 mph27%29.88 "Hg10 mi
12:55 pm72 °FSunny.26 mph27%29.90 "Hg10 mi
12:35 pm71 °FSunny.31 mph28%29.91 "Hg10 mi
12:15 pm72 °FSunny.31 mph28%29.93 "Hg10 mi
11:55 am71 °FSunny.30 mph29%29.93 "Hg10 mi
11:35 am70 °FSunny.29 mph30%29.94 "Hg10 mi
11:15 am70 °FSunny.23 mph30%29.94 "Hg10 mi
10:55 am68 °FSunny.24 mph32%29.93 "Hg10 mi
10:35 am67 °FSunny.30 mph35%29.93 "Hg10 mi
10:15 am66 °FSunny.26 mph37%29.95 "Hg10 mi
9:55 am66 °FSunny.28 mph38%29.95 "Hg10 mi
9:35 am65 °FSunny.30 mph38%29.96 "Hg10 mi
9:15 am64 °FSunny.21 mph42%29.97 "Hg10 mi
8:55 am62 °FSunny.23 mph45%29.96 "Hg10 mi
8:35 am61 °FSunny.22 mph45%29.95 "Hg10 mi
8:15 am60 °FSunny.17 mph47%29.94 "Hg10 mi
7:35 am58 °FSunny.16 mph42%29.93 "Hg10 mi
7:15 am58 °FSunny.15 mph39%29.91 "Hg10 mi
6:55 am57 °FSunny.14 mph37%29.91 "Hg10 mi
6:15 am54 °FClear.10 mph46%29.91 "Hg10 mi
5:55 am54 °FClear.7 mph46%29.90 "Hg10 mi
5:15 am54 °FClear.9 mph50%29.89 "Hg10 mi
4:55 am56 °FClear.10 mph42%29.90 "Hg10 mi
4:35 am58 °FClear.10 mph42%29.88 "Hg10 mi
4:15 am58 °FClear.13 mph42%29.89 "Hg10 mi
3:55 am58 °FClear.9 mph46%29.89 "Hg10 mi
3:35 am59 °FClear.10 mph45%29.90 "Hg10 mi
3:15 am58 °FClear.12 mph48%29.90 "Hg10 mi
2:55 am57 °FClear.7 mph51%29.91 "Hg10 mi
2:35 am55 °FClear.7 mph55%29.91 "Hg10 mi
2:15 am55 °FClear.8 mph56%29.93 "Hg10 mi
1:55 am55 °FClear.9 mph57%29.95 "Hg10 mi
1:35 am55 °FClear.9 mph57%29.94 "Hg10 mi
1:15 am55 °FClear.9 mph57%29.95 "Hg10 mi
12:55 am54 °FClear.10 mph58%29.95 "Hg10 mi
12:35 am55 °FClear.9 mph55%29.95 "Hg10 mi
12:15 am56 °FClear.10 mph54%29.97 "Hg10 mi
Weather by CustomWeather, © 2024

See weather overview